createdAt,value
2018-06-23T00:00:53.226Z,8.19
2018-06-23T00:02:29.754Z,8.24
2018-06-23T00:04:06.719Z,8.23
2018-06-23T00:05:43.942Z,8.18
2018-06-23T00:07:20.067Z,8.21
2018-06-23T00:08:55.572Z,8.24
2018-06-23T00:10:31.279Z,8.24
2018-06-23T00:12:12.125Z,8.26
2018-06-23T00:13:47.635Z,8.30
2018-06-23T00:15:22.857Z,8.35
2018-06-23T00:16:59.430Z,8.36
2018-06-23T00:18:34.703Z,8.35
2018-06-23T00:20:10.739Z,8.37
2018-06-23T00:21:46.679Z,8.38
2018-06-23T00:23:24.374Z,8.43
2018-06-23T00:25:00.543Z,8.47
2018-06-23T00:26:35.716Z,8.46
2018-06-23T00:28:12.486Z,8.51
2018-06-23T00:29:49.591Z,8.47
2018-06-23T00:31:25.685Z,8.50
2018-06-23T00:33:04.549Z,8.48
2018-06-23T00:34:41.311Z,8.51
2018-06-23T00:36:16.623Z,8.51
2018-06-23T00:37:51.662Z,8.52
2018-06-23T00:39:27.230Z,8.54
2018-06-23T00:41:02.521Z,8.53
2018-06-23T00:42:37.776Z,8.61
2018-06-23T00:44:13.381Z,8.66
2018-06-23T00:45:48.664Z,8.70
2018-06-23T00:47:24.029Z,8.69
2018-06-23T00:49:00.690Z,8.65
2018-06-23T00:50:36.196Z,8.73
2018-06-23T00:52:13.317Z,8.73
2018-06-23T00:53:50.556Z,8.71
2018-06-23T00:55:25.454Z,8.67
2018-06-23T00:57:01.805Z,8.70
2018-06-23T00:58:48.387Z,8.69
2018-06-23T01:00:23.711Z,8.70
2018-06-23T01:01:58.597Z,8.69
2018-06-23T01:03:33.572Z,8.71
2018-06-23T01:05:10.449Z,8.69
2018-06-23T01:06:46.397Z,8.71
2018-06-23T01:08:22.600Z,8.74
2018-06-23T01:09:57.656Z,8.73
2018-06-23T01:11:35.131Z,8.77
2018-06-23T01:13:11.394Z,8.72
2018-06-23T01:14:49.522Z,8.73
2018-06-23T01:16:25.459Z,8.75
2018-06-23T01:18:01.738Z,8.74
2018-06-23T01:19:38.313Z,8.72
2018-06-23T01:21:13.705Z,8.71
2018-06-23T01:22:50.345Z,8.70
2018-06-23T01:24:26.847Z,8.76
2018-06-23T01:26:03.653Z,8.77
2018-06-23T01:27:40.591Z,8.73
2018-06-23T01:29:17.747Z,8.77
2018-06-23T01:30:54.529Z,8.79
2018-06-23T01:32:31.543Z,8.79
2018-06-23T01:34:06.851Z,8.72
2018-06-23T01:35:42.614Z,8.74
2018-06-23T01:37:17.360Z,8.71
2018-06-23T01:38:52.514Z,8.69
2018-06-23T01:40:28.381Z,8.67
2018-06-23T01:42:06.994Z,8.62
2018-06-23T01:43:42.036Z,8.55
2018-06-23T01:45:17.816Z,8.55
2018-06-23T01:46:54.195Z,8.53
2018-06-23T01:48:29.065Z,8.52
2018-06-23T01:50:05.345Z,8.53
2018-06-23T01:51:40.201Z,8.54
2018-06-23T01:53:16.775Z,8.54
2018-06-23T01:54:53.579Z,8.58
2018-06-23T01:56:28.476Z,8.58
2018-06-23T01:58:04.215Z,8.62
2018-06-23T01:59:40.633Z,8.59
2018-06-23T02:01:16.012Z,8.61
2018-06-23T02:02:50.841Z,8.66
2018-06-23T02:04:25.613Z,8.61
2018-06-23T02:06:00.622Z,8.62
2018-06-23T02:07:37.042Z,8.62
2018-06-23T02:09:12.609Z,8.61
2018-06-23T02:10:48.097Z,8.54
2018-06-23T02:12:24.184Z,8.54
2018-06-23T02:14:07.556Z,8.51
2018-06-23T02:15:50.244Z,8.50
2018-06-23T02:17:34.873Z,8.49
2018-06-23T02:19:16.470Z,8.49
2018-06-23T02:21:05.019Z,8.46
2018-06-23T02:22:45.395Z,8.45
2018-06-23T02:24:25.392Z,8.44
2018-06-23T02:26:05.241Z,8.43
2018-06-23T02:27:47.570Z,8.45
2018-06-23T02:29:29.663Z,8.43
2018-06-23T02:31:10.347Z,8.43
2018-06-23T02:32:47.521Z,8.42
2018-06-23T02:34:28.694Z,8.44
2018-06-23T02:36:04.000Z,8.44
2018-06-23T02:37:40.623Z,8.44
2018-06-23T02:39:16.761Z,8.47
2018-06-23T02:40:57.689Z,8.46
2018-06-23T02:42:35.040Z,8.49
2018-06-23T02:44:11.350Z,8.48
2018-06-23T02:45:47.649Z,8.48
2018-06-23T02:47:23.009Z,8.49
2018-06-23T02:48:58.165Z,8.51
2018-06-23T02:50:32.928Z,8.51
2018-06-23T02:52:07.626Z,8.52
2018-06-23T02:53:43.743Z,8.50
2018-06-23T02:55:18.697Z,8.49
2018-06-23T02:56:53.764Z,8.50
2018-06-23T02:58:28.631Z,8.53
2018-06-23T03:00:05.028Z,8.59
2018-06-23T03:01:40.515Z,8.48
2018-06-23T03:03:15.399Z,8.48
2018-06-23T03:04:50.843Z,8.45
2018-06-23T03:06:26.323Z,8.45
2018-06-23T03:08:01.906Z,8.41
2018-06-23T03:09:37.334Z,8.43
2018-06-23T03:11:13.944Z,8.44
2018-06-23T03:12:49.002Z,8.43
2018-06-23T03:14:23.784Z,8.44
2018-06-23T03:15:58.716Z,8.42
2018-06-23T03:17:33.750Z,8.45
2018-06-23T03:19:08.776Z,8.40
2018-06-23T03:20:44.954Z,8.38
2018-06-23T03:22:19.799Z,8.37
2018-06-23T03:23:54.513Z,8.38
2018-06-23T03:25:29.881Z,8.33
2018-06-23T03:27:07.325Z,8.34
2018-06-23T03:28:43.123Z,8.32
2018-06-23T03:30:18.895Z,8.31
2018-06-23T03:31:53.888Z,8.33
2018-06-23T03:33:28.594Z,8.35
2018-06-23T03:35:03.604Z,8.41
2018-06-23T03:36:40.836Z,8.33
2018-06-23T03:38:19.751Z,8.34
2018-06-23T03:39:54.596Z,8.31
2018-06-23T03:41:30.208Z,8.32
2018-06-23T03:43:05.100Z,8.32
2018-06-23T03:44:47.563Z,8.33
2018-06-23T03:46:22.629Z,8.34
2018-06-23T03:47:59.955Z,8.24
2018-06-23T03:49:34.712Z,8.30
2018-06-23T03:51:10.569Z,8.26
2018-06-23T03:52:47.182Z,8.26
2018-06-23T03:54:22.262Z,8.23
2018-06-23T03:55:57.022Z,8.32
2018-06-23T03:57:32.805Z,8.33
2018-06-23T03:59:08.526Z,8.27
2018-06-23T04:00:49.198Z,8.31
2018-06-23T04:02:24.184Z,8.25
2018-06-23T04:03:58.937Z,8.26
2018-06-23T04:05:33.723Z,8.31
2018-06-23T04:07:08.481Z,8.24
2018-06-23T04:08:43.828Z,8.18
2018-06-23T04:10:18.560Z,8.16
2018-06-23T04:11:53.301Z,8.14
2018-06-23T04:13:28.798Z,8.21
2018-06-23T04:15:05.830Z,8.18
2018-06-23T04:16:46.296Z,8.13
2018-06-23T04:18:22.590Z,8.13
2018-06-23T04:19:58.408Z,8.10
2018-06-23T04:21:33.221Z,8.07
2018-06-23T04:23:08.591Z,8.03
2018-06-23T04:24:43.285Z,8.02
2018-06-23T04:26:19.704Z,8.00
2018-06-23T04:27:54.478Z,8.01
2018-06-23T04:29:29.241Z,8.00
2018-06-23T04:31:03.999Z,8.06
2018-06-23T04:32:39.160Z,8.09
2018-06-23T04:34:13.932Z,8.06
2018-06-23T04:35:48.666Z,8.04
2018-06-23T04:37:23.484Z,8.03
2018-06-23T04:38:58.225Z,7.99
2018-06-23T04:40:33.305Z,8.00
2018-06-23T04:42:08.099Z,8.03
2018-06-23T04:43:43.627Z,8.06
2018-06-23T04:45:18.835Z,8.09
2018-06-23T04:46:53.591Z,8.09
2018-06-23T04:48:28.636Z,8.20
2018-06-23T04:50:04.202Z,8.31
2018-06-23T04:51:39.821Z,8.36
2018-06-23T04:53:14.985Z,8.43
2018-06-23T04:54:50.278Z,8.44
2018-06-23T04:56:29.324Z,8.37
2018-06-23T04:58:04.796Z,8.34
2018-06-23T04:59:40.333Z,8.44
2018-06-23T05:01:15.065Z,8.41
2018-06-23T05:02:51.159Z,8.31
2018-06-23T05:04:29.547Z,8.36
2018-06-23T05:06:04.508Z,8.37
2018-06-23T05:07:39.375Z,8.39
2018-06-23T05:09:14.135Z,8.43
2018-06-23T05:10:49.368Z,8.51
2018-06-23T05:12:24.959Z,8.66
2018-06-23T05:14:00.100Z,8.72
2018-06-23T05:15:35.183Z,8.81
2018-06-23T05:17:09.988Z,9.04
2018-06-23T05:18:47.176Z,9.22
2018-06-23T05:20:21.961Z,9.38
2018-06-23T05:21:56.675Z,9.53
2018-06-23T05:23:31.616Z,9.45
2018-06-23T05:25:06.403Z,9.67
2018-06-23T05:26:41.584Z,9.93
2018-06-23T05:28:17.301Z,9.93
2018-06-23T05:29:52.020Z,10.00
2018-06-23T05:31:26.721Z,10.10
2018-06-23T05:33:01.401Z,10.37
2018-06-23T05:34:38.703Z,10.36
2018-06-23T05:36:13.478Z,10.40
2018-06-23T05:37:48.288Z,10.54
2018-06-23T05:39:22.951Z,10.56
2018-06-23T05:40:57.661Z,10.44
2018-06-23T05:42:32.820Z,10.55
2018-06-23T05:44:08.628Z,10.33
2018-06-23T05:45:43.491Z,10.35
2018-06-23T05:47:18.272Z,10.26
2018-06-23T05:48:53.907Z,10.20
2018-06-23T05:50:31.046Z,10.04
2018-06-23T05:52:05.887Z,10.12
2018-06-23T05:53:40.612Z,9.96
2018-06-23T05:55:16.341Z,9.95
2018-06-23T05:56:52.380Z,10.08
2018-06-23T05:58:27.129Z,10.09
2018-06-23T06:00:03.051Z,9.88
2018-06-23T06:01:37.764Z,9.89
2018-06-23T06:03:12.627Z,9.93
2018-06-23T06:04:47.793Z,9.96
2018-06-23T06:06:24.804Z,10.13
2018-06-23T06:07:59.609Z,10.05
2018-06-23T06:09:34.332Z,10.09
2018-06-23T06:11:09.122Z,9.92
2018-06-23T06:12:44.386Z,9.87
2018-06-23T06:14:19.133Z,9.97
2018-06-23T06:15:53.911Z,9.96
2018-06-23T06:17:34.567Z,9.91
2018-06-23T06:19:09.271Z,9.91
2018-06-23T06:20:45.010Z,9.94
2018-06-23T06:22:20.428Z,9.79
2018-06-23T06:23:55.249Z,9.91
2018-06-23T06:25:30.173Z,9.64
2018-06-23T06:27:04.940Z,9.56
2018-06-23T06:28:41.551Z,9.47
2018-06-23T06:30:17.189Z,9.72
2018-06-23T06:31:52.424Z,9.80
2018-06-23T06:33:27.380Z,9.77
2018-06-23T06:35:02.096Z,9.89
2018-06-23T06:36:37.559Z,9.82
2018-06-23T06:38:12.656Z,9.91
2018-06-23T06:39:47.702Z,9.89
2018-06-23T06:41:24.437Z,10.03
2018-06-23T06:42:59.728Z,10.07
2018-06-23T06:44:35.565Z,10.04
2018-06-23T06:46:10.390Z,9.90
2018-06-23T06:47:45.800Z,9.97
2018-06-23T06:49:23.236Z,9.87
2018-06-23T06:50:59.345Z,9.89
2018-06-23T06:52:35.347Z,9.86
2018-06-23T06:54:10.403Z,9.82
2018-06-23T06:55:46.690Z,9.83
2018-06-23T06:57:21.468Z,9.66
2018-06-23T06:58:56.397Z,9.51
2018-06-23T07:00:32.274Z,9.55
2018-06-23T07:02:07.228Z,9.68
2018-06-23T07:03:43.800Z,9.74
2018-06-23T07:05:19.912Z,9.76
2018-06-23T07:06:54.629Z,9.78
2018-06-23T07:08:29.868Z,9.84
2018-06-23T07:10:04.947Z,9.88
2018-06-23T07:11:40.917Z,9.86
2018-06-23T07:13:15.671Z,9.75
2018-06-23T07:14:50.541Z,9.76
2018-06-23T07:16:25.331Z,9.75
2018-06-23T07:18:00.111Z,9.50
2018-06-23T07:19:35.558Z,9.50
2018-06-23T07:21:12.268Z,9.46
2018-06-23T07:22:47.419Z,9.51
2018-06-23T07:24:22.264Z,9.59
2018-06-23T07:25:58.102Z,9.55
2018-06-23T07:27:33.583Z,9.46
2018-06-23T07:29:09.673Z,9.50
2018-06-23T07:30:48.556Z,9.50
2018-06-23T07:32:24.270Z,9.50
2018-06-23T07:33:59.035Z,9.43
2018-06-23T07:35:39.614Z,9.24
2018-06-23T07:37:14.658Z,9.46
2018-06-23T07:38:51.623Z,9.64
2018-06-23T07:40:26.812Z,9.65
2018-06-23T07:42:01.723Z,9.77
2018-06-23T07:43:36.533Z,9.77
2018-06-23T07:45:13.189Z,9.85
2018-06-23T07:46:48.786Z,10.04
2018-06-23T07:48:23.511Z,10.12
2018-06-23T07:49:58.360Z,10.05
2018-06-23T07:51:35.946Z,10.18
2018-06-23T07:53:10.749Z,10.16
2018-06-23T07:54:45.513Z,9.94
2018-06-23T07:56:20.620Z,9.92
2018-06-23T07:57:55.501Z,9.72
2018-06-23T07:59:32.098Z,9.70
2018-06-23T08:01:12.251Z,9.77
2018-06-23T08:02:50.598Z,9.62
2018-06-23T08:04:26.404Z,9.56
2018-06-23T08:06:01.326Z,9.74
2018-06-23T08:07:38.325Z,9.75
2018-06-23T08:09:21.679Z,9.59
2018-06-23T08:10:57.688Z,9.61
2018-06-23T08:12:35.703Z,9.66
2018-06-23T08:14:11.582Z,9.53
2018-06-23T08:15:54.721Z,9.61
2018-06-23T08:17:32.110Z,9.41
2018-06-23T08:19:08.837Z,9.42
2018-06-23T08:20:45.883Z,9.44
2018-06-23T08:22:22.930Z,9.43
2018-06-23T08:24:00.165Z,9.38
2018-06-23T08:25:35.589Z,9.37
2018-06-23T08:27:16.398Z,9.34
2018-06-23T08:28:52.782Z,9.48
2018-06-23T08:30:29.924Z,9.64
2018-06-23T08:32:05.963Z,9.72
2018-06-23T08:33:40.982Z,9.92
2018-06-23T08:35:18.865Z,9.97
2018-06-23T08:36:57.245Z,10.26
2018-06-23T08:38:35.114Z,10.40
2018-06-23T08:40:10.924Z,10.51
2018-06-23T08:41:45.764Z,10.93
2018-06-23T08:43:20.683Z,11.25
2018-06-23T08:45:18.050Z,11.63
2018-06-23T08:46:56.154Z,12.01
2018-06-23T08:48:35.626Z,12.55
2018-06-23T08:50:11.660Z,11.96
2018-06-23T08:51:47.518Z,12.26
2018-06-23T08:53:26.828Z,12.33
2018-06-23T08:55:01.596Z,12.06
2018-06-23T08:56:36.594Z,12.00
2018-06-23T08:58:12.388Z,11.97
2018-06-23T08:59:48.706Z,11.82
2018-06-23T09:01:23.507Z,11.78
2018-06-23T09:03:00.633Z,11.78
2018-06-23T09:04:38.832Z,11.64
2018-06-23T09:06:23.234Z,12.63
2018-06-23T09:07:58.199Z,12.86
2018-06-23T09:11:02.264Z,13.73
2018-06-23T09:12:42.011Z,13.94
2018-06-23T09:14:18.270Z,14.37
2018-06-23T09:15:54.388Z,14.05
2018-06-23T09:17:35.257Z,14.01
2018-06-23T09:19:13.205Z,14.48
2018-06-23T09:20:50.784Z,14.00
2018-06-23T09:22:27.120Z,13.88
2018-06-23T09:24:03.441Z,13.67
2018-06-23T09:25:41.345Z,13.38
2018-06-23T09:27:17.813Z,13.27
2018-06-23T09:28:57.728Z,13.42
2018-06-23T09:30:33.815Z,13.64
2018-06-23T09:32:10.078Z,14.01
2018-06-23T09:33:49.552Z,14.84
2018-06-23T09:35:27.471Z,13.88
2018-06-23T09:37:03.688Z,13.75
2018-06-23T09:38:41.343Z,13.80
2018-06-23T09:40:23.658Z,13.78
2018-06-23T09:42:01.651Z,13.34
2018-06-23T09:43:38.502Z,13.48
2018-06-23T09:45:20.431Z,13.27
2018-06-23T09:46:56.910Z,13.19
2018-06-23T09:48:34.679Z,13.05
2018-06-23T09:50:09.777Z,13.31
2018-06-23T09:51:47.527Z,13.79
2018-06-23T09:53:28.861Z,14.66
2018-06-23T09:55:05.911Z,14.94
2018-06-23T09:56:48.729Z,15.48
2018-06-23T09:58:26.243Z,15.15
2018-06-23T10:01:52.677Z,14.80
2018-06-23T10:03:28.793Z,15.41
2018-06-23T10:05:07.394Z,15.63
2018-06-23T10:06:46.481Z,14.94
2018-06-23T10:08:23.371Z,15.34
2018-06-23T10:09:59.423Z,15.26
2018-06-23T10:11:37.735Z,14.71
2018-06-23T10:13:15.528Z,14.76
2018-06-23T10:14:52.489Z,14.43
2018-06-23T10:16:29.088Z,14.16
2018-06-23T10:18:05.155Z,14.23
2018-06-23T10:19:42.723Z,13.81
2018-06-23T10:21:21.555Z,14.03
2018-06-23T10:22:57.475Z,14.03
2018-06-23T10:24:33.731Z,14.09
2018-06-23T10:26:10.684Z,13.94
2018-06-23T10:27:51.344Z,14.36
2018-06-23T10:29:30.437Z,14.91
2018-06-23T10:31:08.736Z,15.28
2018-06-23T10:32:44.337Z,15.69
2018-06-23T10:34:21.165Z,15.67
2018-06-23T10:36:00.326Z,15.70
2018-06-23T10:37:37.149Z,15.70
2018-06-23T10:39:14.508Z,16.08
2018-06-23T10:40:58.354Z,15.81
2018-06-23T10:42:35.692Z,15.46
2018-06-23T10:44:14.343Z,15.46
2018-06-23T10:45:50.686Z,16.37
2018-06-23T10:47:27.104Z,17.12
2018-06-23T10:49:04.821Z,17.17
2018-06-23T10:50:41.909Z,17.40
2018-06-23T10:52:25.818Z,18.28
2018-06-23T10:54:02.870Z,18.69
2018-06-23T10:55:43.186Z,18.56
2018-06-23T10:57:23.061Z,18.33
2018-06-23T10:59:00.558Z,17.58
2018-06-23T11:00:37.905Z,17.11
2018-06-23T11:02:17.648Z,16.64
2018-06-23T11:04:04.231Z,16.07
2018-06-23T11:07:31.749Z,15.61
2018-06-23T11:09:12.702Z,15.26
2018-06-23T11:10:50.508Z,14.99
2018-06-23T11:12:31.958Z,14.83
2018-06-23T11:14:10.279Z,14.56
2018-06-23T11:15:45.927Z,14.64
2018-06-23T11:17:24.726Z,15.05
2018-06-23T11:19:07.030Z,15.59
2018-06-23T11:20:42.425Z,15.75
2018-06-23T11:22:18.812Z,15.91
2018-06-23T11:23:54.331Z,16.26
2018-06-23T11:25:29.927Z,16.46
2018-06-23T11:27:06.636Z,16.63
2018-06-23T11:28:43.912Z,16.34
2018-06-23T11:30:19.358Z,16.12
2018-06-23T11:31:54.479Z,15.85
2018-06-23T11:33:34.099Z,15.63
2018-06-23T11:35:11.508Z,15.44
2018-06-23T11:36:49.351Z,15.48
2018-06-23T11:38:24.441Z,15.20
2018-06-23T11:40:00.125Z,14.64
2018-06-23T11:41:38.426Z,14.57
2018-06-23T11:43:18.267Z,14.98
2018-06-23T11:44:56.289Z,15.29
2018-06-23T11:46:34.649Z,15.79
2018-06-23T11:48:12.676Z,16.02
2018-06-23T11:49:48.678Z,16.19
2018-06-23T11:51:24.667Z,15.74
2018-06-23T11:53:00.274Z,15.49
2018-06-23T11:54:38.613Z,16.29
2018-06-23T11:56:15.290Z,16.30
2018-06-23T11:57:51.551Z,17.34
2018-06-23T11:59:28.617Z,16.82
2018-06-23T12:01:05.258Z,16.27
2018-06-23T12:02:43.600Z,16.49
2018-06-23T12:04:26.811Z,17.33
2018-06-23T12:06:03.191Z,16.26
2018-06-23T12:07:44.057Z,15.74
2018-06-23T12:09:21.571Z,15.73
2018-06-23T12:10:59.622Z,15.50
2018-06-23T12:12:43.448Z,15.71
2018-06-23T12:14:25.284Z,15.54
2018-06-23T12:16:12.469Z,15.12
2018-06-23T12:17:56.531Z,14.66
2018-06-23T12:19:37.656Z,14.49
2018-06-23T12:21:26.776Z,14.50
2018-06-23T12:59:32.814Z,15.58
2018-06-23T13:01:09.856Z,15.43
2018-06-23T13:02:46.077Z,15.71
2018-06-23T13:04:23.737Z,16.21
2018-06-23T13:06:00.064Z,16.11
2018-06-23T13:07:40.724Z,15.69
2018-06-23T13:09:17.923Z,15.41
2018-06-23T13:10:53.497Z,15.29
2018-06-23T13:12:28.560Z,15.32
2018-06-23T13:14:03.886Z,15.28
2018-06-23T13:15:42.165Z,15.14
2018-06-23T13:17:19.652Z,15.38
2018-06-23T13:18:56.583Z,15.56
2018-06-23T13:20:31.823Z,15.86
2018-06-23T13:22:08.295Z,16.67
2018-06-23T13:23:47.445Z,16.02
2018-06-23T13:25:23.175Z,15.81
2018-06-23T13:27:00.284Z,15.53
2018-06-23T13:28:40.023Z,15.41
2018-06-23T13:30:20.122Z,15.76
2018-06-23T13:31:55.116Z,16.37
2018-06-23T13:33:30.271Z,17.01
2018-06-23T13:35:06.689Z,17.59
2018-06-23T13:36:42.910Z,17.52
2018-06-23T13:38:20.655Z,17.23
2018-06-23T13:39:57.688Z,16.71
2018-06-23T13:41:34.637Z,16.32
2018-06-23T13:43:15.285Z,16.38
2018-06-23T13:44:58.803Z,16.57
2018-06-23T13:46:33.699Z,16.03
2018-06-23T13:48:10.546Z,16.08
2018-06-23T13:49:46.741Z,15.76
2018-06-23T13:51:22.396Z,16.01
2018-06-23T13:53:01.276Z,16.64
2018-06-23T13:54:37.161Z,16.37
2018-06-23T13:56:13.349Z,16.77
2018-06-23T13:57:52.730Z,16.58
2018-06-23T13:59:28.348Z,16.45
2018-06-23T14:01:03.833Z,16.26
2018-06-23T14:02:38.682Z,16.13
2018-06-23T14:04:15.724Z,15.81
2018-06-23T14:05:53.054Z,15.64
2018-06-23T14:07:28.324Z,15.64
2018-06-23T14:09:03.826Z,15.26
2018-06-23T14:10:40.415Z,15.28
2018-06-23T14:12:15.154Z,15.76
2018-06-23T14:13:50.584Z,16.10
2018-06-23T14:15:27.170Z,15.97
2018-06-23T14:17:01.991Z,15.81
2018-06-23T14:18:37.328Z,15.66
2018-06-23T14:20:14.064Z,15.62
2018-06-23T14:21:51.036Z,15.66
2018-06-23T14:23:28.893Z,15.52
2018-06-23T14:25:04.953Z,15.10
2018-06-23T14:26:41.462Z,15.19
2018-06-23T14:28:16.684Z,15.48
2018-06-23T14:29:52.503Z,15.72
2018-06-23T14:31:30.158Z,16.01
2018-06-23T14:33:05.992Z,16.16
2018-06-23T14:34:41.253Z,16.68
2018-06-23T14:36:18.627Z,17.13
2018-06-23T14:37:54.456Z,17.02
2018-06-23T14:39:32.543Z,16.88
2018-06-23T14:41:10.779Z,16.59
2018-06-23T14:42:46.105Z,16.08
2018-06-23T14:44:21.630Z,16.42
2018-06-23T14:45:59.207Z,17.05
2018-06-23T14:47:34.807Z,17.95
2018-06-23T14:49:11.482Z,16.96
2018-06-23T14:50:48.275Z,16.61
2018-06-23T14:52:26.267Z,16.22
2018-06-23T14:54:01.365Z,16.35
2018-06-23T14:55:46.764Z,16.29
2018-06-23T14:57:23.669Z,16.21
2018-06-23T14:59:01.864Z,16.47
2018-06-23T15:00:38.266Z,16.76
2018-06-23T15:02:15.650Z,17.06
2018-06-23T15:03:53.283Z,17.52
2018-06-23T15:05:31.633Z,17.34
2018-06-23T15:11:09.014Z,18.17
2018-06-23T15:12:55.298Z,18.14
2018-06-23T15:14:34.527Z,18.08
2018-06-23T15:16:10.377Z,18.47
2018-06-23T15:17:47.360Z,18.57
2018-06-23T15:19:25.755Z,17.74
2018-06-23T15:21:02.291Z,17.60
2018-06-23T15:22:39.995Z,18.08
2018-06-23T15:24:16.329Z,17.53
2018-06-23T15:25:51.895Z,16.89
2018-06-23T15:27:27.402Z,17.17
2018-06-23T15:29:09.047Z,17.49
2018-06-23T15:30:45.464Z,16.58
2018-06-23T15:32:24.927Z,16.63
2018-06-23T15:34:06.434Z,16.56
2018-06-23T15:35:45.304Z,16.40
2018-06-23T15:37:21.257Z,16.22
2018-06-23T15:38:57.621Z,16.15
2018-06-23T15:40:33.493Z,16.19
2018-06-23T15:42:10.020Z,16.30
2018-06-23T15:43:46.645Z,15.86
2018-06-23T15:45:23.250Z,15.82
2018-06-23T15:47:00.083Z,15.67
2018-06-23T15:48:36.152Z,16.00
2018-06-23T15:50:12.741Z,16.18
2018-06-23T15:51:47.780Z,16.04
2018-06-23T15:53:25.312Z,15.88
2018-06-23T15:55:00.850Z,15.67
2018-06-23T15:56:42.522Z,15.86
2018-06-23T15:58:20.423Z,16.23
2018-06-23T15:59:57.493Z,15.59
2018-06-23T16:01:34.864Z,15.97
2018-06-23T16:03:11.423Z,16.22
2018-06-23T16:06:37.418Z,16.63
2018-06-23T16:08:13.602Z,16.69
2018-06-23T16:09:53.722Z,16.84
2018-06-23T16:11:47.389Z,17.21
2018-06-23T16:13:24.524Z,16.22
2018-06-23T16:15:10.325Z,15.97
2018-06-23T16:16:48.645Z,16.04
2018-06-23T16:18:27.943Z,15.96
2018-06-23T16:20:15.530Z,15.61
2018-06-23T16:21:56.141Z,16.04
2018-06-23T16:23:47.611Z,16.26
2018-06-23T16:25:28.230Z,16.30
2018-06-23T16:27:06.539Z,16.02
2018-06-23T16:28:51.684Z,16.19
2018-06-23T16:30:40.392Z,16.11
2018-06-23T16:32:19.212Z,15.40
2018-06-23T16:34:02.311Z,15.51
2018-06-23T16:35:46.209Z,16.03
2018-06-23T16:37:28.739Z,16.01
2018-06-23T16:39:10.853Z,15.70
2018-06-23T16:42:35.076Z,15.49
2018-06-23T16:44:15.500Z,15.30
2018-06-23T16:45:53.162Z,15.31
2018-06-23T16:47:36.375Z,15.35
2018-06-23T16:49:13.579Z,14.98
2018-06-23T16:50:51.886Z,14.90
2018-06-23T16:52:30.921Z,14.92
2018-06-23T16:54:08.535Z,14.81
2018-06-23T16:55:45.333Z,14.87
2018-06-23T16:57:27.327Z,15.09
2018-06-23T16:59:05.838Z,15.28
2018-06-23T17:00:51.761Z,15.24
2018-06-23T17:02:29.319Z,15.29
2018-06-23T17:04:11.356Z,15.10
2018-06-23T17:05:50.024Z,15.12
2018-06-23T17:07:37.480Z,15.18
2018-06-23T17:09:12.646Z,15.12
2018-06-23T17:10:49.414Z,14.95
2018-06-23T17:12:26.030Z,14.95
2018-06-23T17:14:02.718Z,14.81
2018-06-23T17:15:39.394Z,14.67
2018-06-23T17:17:16.987Z,14.63
2018-06-23T17:20:36.745Z,14.91
2018-06-23T17:22:15.468Z,14.89
2018-06-23T17:23:53.795Z,14.91
2018-06-23T17:25:33.832Z,15.21
2018-06-23T17:27:13.094Z,15.54
2018-06-23T17:28:49.474Z,15.62
2018-06-23T17:30:25.582Z,15.95
2018-06-23T17:33:50.271Z,16.11
2018-06-23T17:35:26.803Z,16.20
2018-06-23T17:37:06.092Z,16.54
2018-06-23T17:38:41.801Z,16.47
2018-06-23T17:40:21.240Z,15.87
2018-06-23T17:41:59.070Z,15.83
2018-06-23T17:43:35.816Z,15.72
2018-06-23T17:45:18.873Z,15.47
2018-06-23T17:46:55.235Z,15.57
2018-06-23T17:48:33.788Z,15.71
2018-06-23T17:50:09.277Z,15.91
2018-06-23T17:51:47.807Z,15.81
2018-06-23T17:53:24.197Z,15.68
2018-06-23T17:55:00.482Z,15.69
2018-06-23T17:56:37.040Z,15.88
2018-06-23T17:58:16.116Z,16.05
2018-06-23T17:59:52.204Z,16.18
2018-06-23T18:01:31.017Z,16.21
2018-06-23T18:03:10.385Z,16.11
2018-06-23T18:04:47.680Z,15.78
2018-06-23T18:06:23.368Z,15.86
2018-06-23T18:08:01.317Z,15.85
2018-06-23T18:09:38.462Z,15.75
2018-06-23T18:11:18.169Z,15.66
2018-06-23T18:12:57.275Z,15.68
2018-06-23T18:14:43.465Z,15.74
2018-06-23T18:16:27.590Z,15.97
2018-06-23T18:18:11.336Z,16.01
2018-06-23T18:19:50.276Z,15.72
2018-06-23T18:21:28.996Z,15.64
2018-06-23T18:23:19.549Z,15.44
2018-06-23T18:25:16.505Z,15.48
2018-06-23T18:26:54.248Z,15.39
2018-06-23T18:28:38.745Z,15.35
2018-06-23T18:30:19.573Z,15.34
2018-06-23T18:31:57.457Z,15.14
2018-06-23T18:33:33.697Z,14.96
2018-06-23T18:35:11.257Z,15.02
2018-06-23T18:36:50.864Z,15.00
2018-06-23T18:40:13.705Z,14.87
2018-06-23T18:41:50.022Z,14.81
2018-06-23T18:43:26.824Z,14.81
2018-06-23T18:45:07.504Z,14.63
2018-06-23T18:46:46.737Z,14.60
2018-06-23T18:48:23.220Z,14.48
2018-06-23T18:49:59.490Z,14.39
2018-06-23T18:51:36.575Z,14.45
2018-06-23T18:53:11.985Z,14.42
2018-06-23T18:54:49.963Z,14.46
2018-06-23T18:56:30.376Z,14.45
2018-06-23T18:58:11.569Z,14.56
2018-06-23T18:59:51.581Z,14.48
2018-06-23T19:01:27.107Z,14.38
2018-06-23T19:03:05.022Z,14.16
2018-06-23T19:04:44.730Z,14.12
2018-06-23T19:06:20.434Z,13.97
2018-06-23T19:07:57.796Z,13.89
2018-06-23T19:09:34.860Z,13.83
2018-06-23T19:11:10.760Z,13.71
2018-06-23T19:12:46.298Z,13.57
2018-06-23T19:14:23.083Z,13.52
2018-06-23T19:15:59.409Z,13.43
2018-06-23T19:17:41.282Z,13.30
2018-06-23T19:19:19.051Z,13.20
2018-06-23T19:20:59.428Z,13.13
2018-06-23T19:22:38.643Z,13.09
2018-06-23T19:24:15.124Z,12.98
2018-06-23T19:25:52.646Z,12.86
2018-06-23T19:29:10.717Z,12.67
2018-06-23T19:30:48.161Z,12.57
2018-06-23T19:32:24.937Z,12.47
2018-06-23T19:34:02.507Z,12.42
2018-06-23T19:35:39.864Z,12.26
2018-06-23T19:37:18.013Z,12.14
2018-06-23T19:38:55.158Z,12.10
2018-06-23T19:40:31.043Z,12.02
2018-06-23T19:42:09.375Z,11.93
2018-06-23T19:43:48.177Z,11.82
2018-06-23T19:45:24.673Z,11.77
2018-06-23T19:47:00.736Z,11.75
2018-06-23T19:48:38.670Z,11.60
2018-06-23T19:50:15.426Z,11.49
2018-06-23T19:51:52.815Z,11.37
2018-06-23T19:53:29.198Z,11.31
2018-06-23T19:55:06.211Z,11.22
2018-06-23T19:56:43.345Z,11.12
2018-06-23T19:58:21.252Z,11.01
2018-06-23T19:59:57.865Z,10.95
2018-06-23T20:01:39.755Z,10.81
2018-06-23T20:03:21.618Z,10.70
2018-06-23T20:06:55.193Z,10.50
2018-06-23T20:08:33.669Z,10.43
2018-06-23T20:10:12.030Z,10.41
2018-06-23T20:12:12.484Z,10.46
2018-06-23T20:13:51.403Z,10.44
2018-06-23T20:15:36.246Z,10.37
2018-06-23T20:17:12.722Z,10.24
2018-06-23T20:18:50.346Z,10.16
2018-06-23T20:20:32.658Z,10.10
2018-06-23T20:22:09.225Z,10.10
2018-06-23T20:23:48.278Z,10.00
2018-06-23T20:25:24.721Z,9.90
2018-06-23T20:27:02.623Z,9.82
2018-06-23T20:28:42.309Z,9.81
2018-06-23T20:30:30.246Z,9.78
2018-06-23T20:32:12.370Z,9.73
2018-06-23T20:33:49.698Z,9.65
2018-06-23T20:35:29.466Z,9.63
2018-06-23T20:37:11.341Z,9.62
2018-06-23T20:38:50.457Z,9.55
2018-06-23T20:40:34.080Z,9.52
2018-06-23T20:42:19.687Z,9.45
2018-06-23T20:43:59.057Z,9.46
2018-06-23T20:45:38.067Z,9.46
2018-06-23T20:47:19.641Z,9.38
2018-06-23T20:48:58.154Z,9.33
2018-06-23T20:50:36.906Z,9.37
2018-06-23T20:52:14.618Z,9.32
2018-06-23T20:53:51.174Z,9.27
2018-06-23T20:55:29.274Z,9.24
2018-06-23T20:57:10.577Z,9.25
2018-06-23T20:58:46.536Z,9.31
2018-06-23T21:00:22.889Z,9.31
2018-06-23T21:02:00.164Z,9.27
2018-06-23T21:04:20.348Z,9.22
2018-06-23T21:06:10.585Z,9.29
2018-06-23T21:07:52.447Z,9.31
2018-06-23T21:09:34.668Z,9.37
2018-06-23T21:11:15.431Z,9.42
2018-06-23T21:12:53.230Z,9.43
2018-06-23T21:16:37.657Z,9.34
2018-06-23T21:18:13.790Z,9.30
2018-06-23T21:19:51.125Z,9.29
2018-06-23T21:21:26.318Z,9.32
2018-06-23T21:23:04.216Z,9.31
2018-06-23T21:24:40.660Z,9.30
2018-06-23T21:26:18.348Z,9.35
2018-06-23T21:28:00.132Z,9.39
2018-06-23T21:29:39.228Z,9.39
2018-06-23T21:31:16.600Z,9.40
2018-06-23T21:32:55.707Z,9.33
2018-06-23T21:34:38.121Z,9.31
2018-06-23T21:36:19.830Z,9.26
2018-06-23T21:38:04.398Z,9.24
2018-06-23T21:39:45.706Z,9.28
2018-06-23T21:41:29.480Z,9.34
2018-06-23T21:43:07.868Z,9.39
2018-06-23T21:44:47.872Z,9.40
2018-06-23T21:46:24.211Z,9.45
2018-06-23T21:48:01.658Z,9.44
2018-06-23T21:49:41.932Z,9.40
2018-06-23T21:51:21.516Z,9.40
2018-06-23T21:53:02.159Z,9.37
2018-06-23T21:54:37.739Z,9.34
2018-06-23T21:56:26.457Z,9.33
2018-06-23T21:58:05.765Z,9.32
2018-06-23T21:59:44.321Z,9.31
2018-06-23T22:01:41.871Z,9.31
2018-06-23T22:03:18.876Z,9.35
2018-06-23T22:04:58.709Z,9.38
2018-06-23T22:06:35.824Z,9.43
2018-06-23T22:08:13.293Z,9.45
2018-06-23T22:09:51.997Z,9.44
2018-06-23T22:11:28.460Z,9.44
2018-06-23T22:13:06.623Z,9.45
2018-06-23T22:14:48.400Z,9.48
2018-06-23T22:16:35.378Z,9.48